Artur Kallaste

Главный скаут - Nomme Kalju
20 Ноя 2027
Суббота
Продолжить

Характер

Адаптивность (7) Амбиции (11) Скандальность (8) Верность (16) Стрессоустойчивость (5) Профессионализм (6) Благородство (8) Темперамент (17)

Профиль

Стиль управления Демократичный
Лицензия Национальная B
Решительность 5
Управление людьми 8
Мотивация 3
Дисциплина 9
Удовлетворённость
100%
Усталость
0%
Должность Главный скаут
Зарплата 39.2K в нед.
Контракт 14.03.2028

Производительность

Поведение Хорошее
Эффективность тренировок
31%
Развитие игроков
15%
Профилактика травм
45%
Тактическая реализация
40%

Недавние события

Оценил игрока только что
Участвовал в селекционном совещании только что
Участвовал в селекционном совещании только что
Участвовал в селекционном совещании только что
Оценил игрока только что
Оценил игрока только что
Оценил игрока 7 дн. назад
Оценил игрока 7 дн. назад

Текущее наблюдение

158
Игрок Клуб Статус Способность Уверенность Наблюдений Последнее наблюдение Последний голос
Oscar Osorio Atletico Venezuela Активный 120 / 113 40% 1 19.11.2027 -
Daouda Natama Minsk Активный 98 / 94 40% 1 19.11.2027 -
Kirill Tsepenkov Dnepr Mogilev Активный 92 / 99 40% 3 18.11.2027 -
Agustín Lavezzi Quilmes Активный 122 / 114 40% 2 18.11.2027 -
Uladzimir Palitsevich Lokomotiv Gomel Активный 82 / 72 40% 2 17.11.2027 -
Guljigit Borubaev Neman Активный 103 / 100 40% 3 17.11.2027 -
Fawaz Abdullahi Dinamo Minsk Активный 112 / 104 40% 1 17.11.2027 -
Juan Pablo Barinaga Patronato Активный 117 / 122 40% 1 17.11.2027 -
Roman Paparyga Qizilqum Активный 109 / 89 40% 3 15.11.2027 -
Gianluca Pugliese Güemes Активный 116 / 116 40% 2 13.11.2027 -
Ljupce Doriev Sogdiana Активный 108 / 113 40% 1 12.11.2027 -
Rafael Arace Deportivo Tachira Активный 108 / 106 40% 1 11.11.2027 -
Kirill Kirilenko Dnepr Mogilev Активный 100 / 87 40% 1 10.11.2027 -
Daniel Sosah Aktobe Активный 115 / 100 40% 1 09.11.2027 -
Santiago Sala Güemes Активный 115 / 107 40% 1 09.11.2027 -
Timofey Simanenka Gomel Активный 100 / 100 40% 1 08.11.2027 -
Oleksiy Shchebetun Qizilqum Активный 96 / 95 40% 1 08.11.2027 -
Juan David Rueda Alianza Petrolera Активный 98 / 104 40% 3 07.11.2027 -
Luka Ratković Qizilqum Активный 105 / 106 40% 1 07.11.2027 -
Ilya Kukharchik Slavia Mozyr Активный 95 / 82 40% 1 04.11.2027 -
Marco Miori Alvarado Активный 124 / 113 40% 1 04.11.2027 -
Gafar Saka Plateau United Активный 93 / 90 40% 1 04.11.2027 -
Chinedu Onyinjekwu Bayelsa United Активный 95 / 92 40% 1 03.11.2027 -
Rubin Hebaj Tobol Активный 123 / 104 40% 1 03.11.2027 -
Javohir Sidiqov Kokand 1912 Активный 118 / 116 40% 1 02.11.2027 -
Mateo Zuleta Once Caldas Активный 116 / 124 40% 1 02.11.2027 -
Everton Moraes Ordabasy Активный 107 / 116 40% 2 31.10.2027 -
Anvar Murodov Mashal Активный 78 / 74 40% 1 31.10.2027 -
Léo Natel Ordabasy Активный 130 / 113 40% 1 30.10.2027 -
Raúl Lozano Quilmes Активный 128 / 123 40% 1 29.10.2027 -
Aleksandar Boljević Sogdiana Активный 113 / 110 40% 1 29.10.2027 -
Enzo Avaro Mitre Активный 101 / 117 40% 1 29.10.2027 -
Joel Kojo Navbahor Активный 113 / 106 40% 1 29.10.2027 -
Facundo Castelli Estudiantes Активный 128 / 117 40% 1 28.10.2027 -
Ángel González Ferro Carril Oeste Активный 101 / 111 40% 1 28.10.2027 -
Augusto Berrondo Tristán Suárez Активный 100 / 110 40% 2 26.10.2027 -
Marcos Camarda Santiago Wanderers Активный 101 / 113 40% 1 26.10.2027 -
Tiziano Dornell Almagro Активный 108 / 124 40% 2 25.10.2027 -
Vladimir Rodić Bukhara Активный 114 / 109 40% 2 24.10.2027 -
Federico Versaci Talleres Активный 123 / 112 40% 2 24.10.2027 -
Zoran Marušić Neftchi Активный 96 / 107 40% 1 24.10.2027 -
Mollo Bessala Levadia Активный 107 / 110 40% 1 22.10.2027 -
Jhon Murillo America de Cali Активный 133 / 114 40% 1 22.10.2027 -
Claudio Salto Almagro Активный 100 / 97 40% 1 20.10.2027 -
Matías Viguet Maipú Активный 117 / 118 40% 1 20.10.2027 -
Jonathan Cañete Portuguesa Активный 116 / 105 40% 1 20.10.2027 -
Maximiliano Rueda Patronato Активный 118 / 117 40% 1 19.10.2027 -
Martín Álvarez Tristán Suárez Активный 110 / 111 40% 1 17.10.2027 -
Facundo Pons San Martín Активный 112 / 114 40% 1 17.10.2027 -
Nicolás Mosca Atlanta Активный 104 / 102 40% 1 17.10.2027 -
Ramón González Almirante Brown Активный 115 / 107 40% 1 17.10.2027 -
Ricardo Centurión Racing Активный 122 / 104 40% 1 16.10.2027 -
Rick Talleres Активный 134 / 123 40% 1 16.10.2027 -
Santiago Apa All Boys Активный 123 / 109 40% 2 13.10.2027 -
Ruslan Teverov Smorgon Активный 82 / 98 40% 1 13.10.2027 -
Yehor Kondratiuk Kokand 1912 Активный 79 / 95 40% 1 13.10.2027 -
Lucas Ríos Atlanta Активный 129 / 108 40% 1 10.10.2027 -
Amine Talal Tobol Активный 119 / 103 40% 1 09.10.2027 -
Steven Alfred Torpedo-BelAZ Активный 99 / 108 40% 1 09.10.2027 -
Kirill Danilin Dinamo Brest Активный 108 / 111 40% 1 08.10.2027 -
Santiago Vera Almirante Brown Активный 117 / 112 40% 1 08.10.2027 -
Ivan Zenkov Dinamo Brest Активный 91 / 100 40% 1 06.10.2027 -
Anton Betyuzhnov Dinamo Vologda Активный 83 / 79 40% 1 15.07.2027 -
Georgy Melkadze Akhmat Grozny Активный 128 / 114 40% 1 15.07.2027 -
Kamran Aliev SKA Khabarovsk Активный 107 / 110 40% 2 14.07.2027 -
Roberto Insigne Catania Активный 107 / 105 40% 1 14.07.2027 -
Danil Lipovoy Ufa Активный 112 / 106 40% 2 13.07.2027 -
Doniyor Abdumannopov Andijon Активный 104 / 110 40% 1 12.07.2027 -
Georgi Tunjov Pro Patria Активный 101 / 105 40% 1 12.07.2027 -
Darko Todorović Fakel Активный 112 / 117 40% 6 11.07.2027 -
Mariano Miño Modena Активный 120 / 121 40% 1 11.07.2027 -
Vyacheslav Yakimov Fakel Активный 107 / 106 40% 1 10.07.2027 -
Cyrus Christie Bolton Wanderers Активный 119 / 115 40% 1 10.07.2027 -
Edarlyn Reyes Arsenal Tula Активный 118 / 108 40% 5 09.07.2027 -
Davis Mensah Cittadella Активный 128 / 123 40% 2 06.07.2027 -
Luis Guerra Astana Активный 101 / 113 40% 1 05.07.2027 -
Andrey Mazurin Yenisey Активный 107 / 107 40% 5 04.07.2027 -
Rio Adébísí Peterborough United Активный 94 / 111 40% 2 04.07.2027 -
Alexandr Saplinov Volga Активный 92 / 102 40% 2 02.07.2027 -
Krasian Kolev Chernomorets Отклонён 108 / 106 40% 1 02.07.2027 -
Thomas Ince Watford Активный 123 / 116 40% 1 26.06.2027 -
Jacopo Manconi Casertana Активный 105 / 123 40% 1 23.06.2027 -
Davide Di Molfetta Union Brescia Активный 136 / 125 40% 1 23.06.2027 -
Garrik Levin Chelyabinsk Активный 93 / 96 40% 3 22.06.2027 -
Brendan Wiredu Plymouth Argyle Активный 108 / 110 40% 1 22.06.2027 -
James Tilley Wycombe Wanderers Активный 90 / 89 40% 1 21.06.2027 -
Jordan Gabriel Port Vale Активный 114 / 114 40% 1 21.06.2027 -
Mark Maksimkin Narva Trans Активный 81 / 87 51% 1 07.06.2027 -
Murad Velijev Narva Trans Упущен 84 / 80 51% 1 04.06.2027 -
Josué Doké Narva Trans Активный 92 / 80 51% 1 02.06.2027 -
Roman Zaschepkin KAMAZ Активный 90 / 89 40% 1 31.05.2027 -
Henri Anier Paide Активный 98 / 87 51% 1 25.01.2027 -
Edgar Tur Paide Активный 88 / 99 51% 1 11.01.2027 -
Cristian Campagna Narva Trans Активный 73 / 87 51% 1 04.01.2027 Наблюдать
Kenan Dervišagić Floriana Активный 86 / 87 40% 1 02.01.2027 -
German Onugkha Rodina Активный 119 / 113 40% 1 02.01.2027 -
Rustam Asenchukov Rostov Активный 57 / 69 40% 1 30.12.2026 -
Ramazan Gadjimuradov Chelyabinsk Активный 107 / 99 40% 2 28.12.2026 -
Vladislav Ignatenko Amkar Активный 84 / 83 40% 2 27.12.2026 -
Evgeny Voronin Volga Активный 86 / 85 40% 2 23.12.2026 -
Iker Pozo Rodina Активный 124 / 119 40% 1 23.12.2026 -
Leo Goglichidze Rodina Активный 109 / 121 40% 2 19.12.2026 -
Igor Konovalov Chernomorets Активный 92 / 104 40% 1 19.12.2026 -
Alan Tsaraev Arsenal Tula Активный 93 / 107 40% 1 15.12.2026 -
Daniil Gurchenko Spartak Tambov Активный 96 / 88 40% 1 15.12.2026 -
Danil Khromov Dinamo Stavropol Активный 79 / 67 40% 1 14.12.2026 -
Nikita Yershov Kosmos Активный 83 / 84 40% 2 13.12.2026 -
Timofey Shipunov Ufa Активный 85 / 92 40% 3 13.12.2026 -
Krasian Kolev Chernomorets Упущен 102 / 101 40% 1 12.12.2026 -
Soltmurad Bakaev Rodina Активный 106 / 95 40% 3 10.12.2026 Наблюдать
Artem Simonyan Rotor Активный 92 / 96 40% 1 06.12.2026 -
Muhammad Sultonov KAMAZ Активный 101 / 88 40% 1 04.12.2026 -
Fanil Sungatulin Ural Активный 102 / 102 40% 2 01.12.2026 -
Magomednabi Yagjaev Nart Активный 72 / 86 40% 1 29.11.2026 -
Anatoliy Makarov Leningradets Активный 83 / 100 40% 1 27.11.2026 -
Miloš Brnović Arsenal Tula Активный 115 / 107 40% 1 25.11.2026 -
Dmitry Kuchugura Veles Активный 92 / 83 40% 1 24.11.2026 -
Danila Shilov Dinamo Stavropol Активный 101 / 85 40% 1 24.11.2026 -
Roman Zobnin Spartak Moscow Активный 126 / 127 40% 1 23.11.2026 -
Kristijan Bistrović Akron Активный 127 / 112 40% 1 23.11.2026 -
David Kokoev Yenisey Активный 96 / 97 40% 1 21.11.2026 -
Léo Cordeiro Ural Активный 116 / 120 40% 1 20.11.2026 -
Nikolay Giorgobiani Fakel Активный 99 / 110 40% 1 19.11.2026 -
Maxim Khramtsov Rotor Активный 80 / 95 40% 1 19.11.2026 -
Batraz Gurtsiev Alania Активный 90 / 92 40% 2 15.11.2026 -
Arshak Koryan SKA Khabarovsk Активный 104 / 88 40% 1 15.11.2026 -
Maxim Polyakov Textilschik Активный 94 / 85 40% 1 13.11.2026 -
Kevin Pina Krasnodar Активный 130 / 123 40% 1 07.11.2026 -
Alexey Vakulich Arsenal Tula Активный 104 / 100 40% 1 07.11.2026 -
Nikolay Boyarkin Salyut Активный 77 / 93 40% 2 05.11.2026 -
Evgeny Kharin Ural Активный 97 / 94 40% 1 05.11.2026 -
Razhab Magomedov Dinamo Makhachkala Активный 101 / 96 40% 1 03.11.2026 -
Vladislav Kamilov Ufa Активный 115 / 108 40% 1 03.11.2026 -
Ibragim Umarov Pobeda Активный 78 / 98 40% 1 02.11.2026 -
Alexandr Troshechkin Rotor Активный 114 / 99 40% 1 02.11.2026 -
Damián Puebla Orenburg Активный 115 / 119 40% 2 30.10.2026 -
Danil Poluboyarinov Volgar Активный 81 / 94 40% 1 29.10.2026 -
Ilja Zhigulev Chernomorets Активный 96 / 97 40% 1 29.10.2026 -
Nikita Demchenko Spartak Kostroma Активный 96 / 97 40% 1 25.10.2026 -
Alexandr Lomakin Yenisey Активный 96 / 106 40% 1 25.10.2026 -
Luka Gagnidze Dinamo Moscow Активный 104 / 113 40% 1 23.10.2026 -
Gleb Shevchenko Torpedo Moscow Активный 110 / 100 40% 1 21.10.2026 -
Kirill Korolkov Veles Активный 94 / 96 40% 1 20.10.2026 -
Alexandr Bem Tyumen Активный 89 / 97 40% 1 18.10.2026 -
Ilja Vakhania Krasnodar Активный 132 / 128 40% 1 16.10.2026 -
Alexandr Lomovitskiy Torpedo-BelAZ Активный 106 / 105 40% 1 14.10.2026 -
Vladislav Adaev Volgar Активный 80 / 78 40% 1 14.10.2026 -
Andrey Khityaev Rotor Активный 83 / 85 40% 1 11.10.2026 -
Golden Mafwenta Naftan Активный 94 / 98 40% 1 10.10.2026 -
Vladislav Lyakh Dinamo Brest Активный 88 / 92 40% 1 10.10.2026 -
Anton Suchkov Neman Активный 101 / 99 40% 1 08.10.2026 -
Vladislav Zhuravlev Isloch Активный 82 / 88 40% 1 08.10.2026 -
Oleg Evdokimov Neman Активный 102 / 96 40% 1 05.10.2026 -
Leonard Chatelin Gweth Dinamo Minsk Активный 80 / 99 40% 1 31.08.2026 -
Mairo Miil Tammeka Активный 67 / 78 48% 1 17.08.2026 -
Vladislav Lozhkin Dinamo Brest Активный 89 / 103 40% 1 02.08.2026 -
Alexandr Butko Isloch Активный 75 / 76 40% 1 01.08.2026 -
Edwuin Cetré Estudiantes Активный 115 / 118 40% 1 01.08.2026 -